Terminal Aerodrome Forecast
Issued by NWS Milwaukee/Sullivan, WI

Home | Current Version | Previous Version | Text Only | Print | Product List | Glossary On
Versions: 1 2 3 4 5 6 7 8 9 10 11 12 13 14 15 16 17 18 19 20 21 22 23 24 25 26 27 28 29 30 31 32 33 34 35 36 37 38 39 40 41 42 43 44 45 46 47
000
FTUS43 KMKX 232320
TAFMKE
TAF
KMKE 232320Z 2400/2506 24005KT P6SM SKC
     FM240500 21005KT P6SM FEW250
     FM241100 21009KT P6SM FEW100 SCT140 WS020/24040KT
     FM241500 21011G22KT P6SM FEW130 SCT250
     FM242000 21014G28KT P6SM FEW150 SCT250
     FM250000 24011KT P6SM BKN110 BKN130
     FM250200 27010G20KT P6SM FEW080 SCT090=

USA.gov is the U.S. government's official web portal to all federal, state and local government web resources and services.